Terminal Aerodrome Forecast
Issued by NWS Corpus Christi, TX

Home | Current Version | Previous Version | Text Only | Print | Product List | Glossary On
Versions: 1 2 3 4 5 6 7 8 9 10 11 12 13 14 15 16 17 18 19 20
372
FTUS44 KCRP 172333
TAFCRP
TAF
KCRP 172333Z 1800/1824 13017G24KT P6SM FEW025 SCT250
     FM180300 12011KT P6SM BKN012
     FM180500 13007KT 5SM BR OVC004
      TEMPO 1809/1812 2SM BR OVC002
     FM181300 13008KT P6SM OVC012
     FM181600 15015KT P6SM BKN025
     FM181830 14018G27KT P6SM SCT035 BKN250=

USA.gov is the U.S. government's official web portal to all federal, state and local government web resources and services.